Quinque, VA (22965)

10:50 PM EST on February 06, 2016 (GMT -0500)
Planet Earth Diversified Barn | | Change Station
CLOSE
Current Station
Personal Weather Station
Location: Stanardsville, VA
Elevation: 595 ft
Nearby Weather Stations

Elev 595 ft 38.25 °N, 78.46 °W | Updated 22 seconds ago

Clear
Clear
28.7 °F
Feels Like 29 °F
N
0.0
Wind Variable Wind from SSE
Gusts 0.0 mph

Today
High -- | Low -- °F
--% Chance of Precip.
Yesterday
High -- | Low -- °F
Precip. -- in
Pressure 30.27 in
Visibility 10.0 miles
Clouds Clear
Windchill 29 °F
Dew Point 23 °F
Humidity 80%
Rainfall 0.00 in
Snow Depth Not available.
7:14 AM 5:41 PM
Waning Crescent, 3% visible
METAR KCHO 070253Z 34003KT 10SM CLR 02/M08 A3026 RMK AO2 SLP251 T00171083 58008
Pressure 30.27 in
Visibility 10.0 miles
Clouds Clear
Windchill 29 °F
Dew Point 23 °F
Humidity 80%
Rainfall 0.00 in
Snow Depth Not available.
7:14 AM 5:41 PM
Waning Crescent, 3% visible
METAR KCHO 070253Z 34003KT 10SM CLR 02/M08 A3026 RMK AO2 SLP251 T00171083 58008

10-Day Weather Forecast

Almanac

Astronomy

Feb. 06, 2016 Rise Set
Actual Time
Civil Twilight
Nautical Twilight
Astronomical Twilight
Moon
Length of Visible Light
Length of Day
Tomorrow will be .
, % of the Moon is Illuminated

Today's Extremes

State Highs State Lows

Community

WunderPhotos

Upload Photos

1,891,154 photos uploaded!

WunderBlog® & News

Nearby

Air Quality

  Air Quality AQ Index Pollutant
Not available.

Snow Depth

Station Depth Elevation

Earthquake Activity

City Distance Mag. Time & Date
Minimum magnitude displayed is 2.5.

Coastal Water Temperatures

Place Temperature

Stations

Nearby Weather Stations

Station Location Temp. Windchill Dew Point Humidity Wind Precip. Elev Updated Type
                   

Watches & Warnings

There are currently no watches in effect.